sensor_id;sensor_type;location;lat;lon;timestamp;P1;durP1;ratioP1;P2;durP2;ratioP2
18647;SDS011;9453;50.294;18.644;2023-04-25T04:01:34;3.40;;;1.90;;
18647;SDS011;9453;50.294;18.644;2023-04-25T04:04:01;4.50;;;1.57;;
18647;SDS011;9453;50.294;18.644;2023-04-25T04:06:28;4.63;;;1.83;;
18647;SDS011;9453;50.294;18.644;2023-04-25T04:08:55;2.40;;;1.70;;
18647;SDS011;9453;50.294;18.644;2023-04-25T04:11:22;3.43;;;2.00;;
18647;SDS011;9453;50.294;18.644;2023-04-25T04:13:49;5.90;;;2.10;;
18647;SDS011;9453;50.294;18.644;2023-04-25T04:16:16;6.40;;;1.90;;
18647;SDS011;9453;50.294;18.644;2023-04-25T04:18:45;2.50;;;1.77;;
18647;SDS011;9453;50.294;18.644;2023-04-25T04:21:12;3.13;;;2.37;;
18647;SDS011;9453;50.294;18.644;2023-04-25T04:23:40;3.93;;;2.13;;
18647;SDS011;9453;50.294;18.644;2023-04-25T04:26:07;5.80;;;2.00;;
18647;SDS011;9453;50.294;18.644;2023-04-25T04:28:34;5.93;;;2.17;;
18647;SDS011;9453;50.294;18.644;2023-04-25T04:31:01;4.73;;;2.20;;
18647;SDS011;9453;50.294;18.644;2023-04-25T04:33:28;6.83;;;2.50;;
18647;SDS011;9453;50.294;18.644;2023-04-25T04:35:57;5.50;;;2.27;;
18647;SDS011;9453;50.294;18.644;2023-04-25T04:38:24;3.50;;;2.07;;
18647;SDS011;9453;50.294;18.644;2023-04-25T04:40:51;3.47;;;2.20;;
18647;SDS011;9453;50.294;18.644;2023-04-25T04:43:18;4.30;;;2.33;;
18647;SDS011;9453;50.294;18.644;2023-04-25T04:45:45;5.13;;;2.23;;
18647;SDS011;9453;50.294;18.644;2023-04-25T04:48:12;4.20;;;2.57;;
18647;SDS011;9453;50.294;18.644;2023-04-25T04:50:39;3.63;;;2.03;;
18647;SDS011;9453;50.294;18.644;2023-04-25T04:53:08;2.93;;;2.10;;
18647;SDS011;9453;50.294;18.644;2023-04-25T04:55:34;4.07;;;2.20;;
18647;SDS011;9453;50.294;18.644;2023-04-25T04:58:01;6.63;;;2.50;;
18647;SDS011;9453;50.294;18.644;2023-04-25T05:00:28;5.40;;;2.50;;
18647;SDS011;9453;50.294;18.644;2023-04-25T05:02:55;4.30;;;2.50;;
18647;SDS011;9453;50.294;18.644;2023-04-25T05:05:22;4.30;;;2.40;;
18647;SDS011;9453;50.294;18.644;2023-04-25T05:07:49;5.53;;;2.70;;
18647;SDS011;9453;50.294;18.644;2023-04-25T05:10:18;3.80;;;2.30;;
18647;SDS011;9453;50.294;18.644;2023-04-25T05:12:45;5.47;;;2.60;;
18647;SDS011;9453;50.294;18.644;2023-04-25T05:15:13;8.77;;;3.50;;
18647;SDS011;9453;50.294;18.644;2023-04-25T05:17:40;6.33;;;2.97;;
18647;SDS011;9453;50.294;18.644;2023-04-25T05:20:08;6.43;;;3.20;;
18647;SDS011;9453;50.294;18.644;2023-04-25T05:22:35;5.10;;;2.73;;
18647;SDS011;9453;50.294;18.644;2023-04-25T05:25:02;7.00;;;3.17;;
18647;SDS011;9453;50.294;18.644;2023-04-25T05:27:31;5.93;;;3.20;;
18647;SDS011;9453;50.294;18.644;2023-04-25T05:29:58;5.00;;;2.90;;
18647;SDS011;9453;50.294;18.644;2023-04-25T05:32:25;11.57;;;3.93;;
18647;SDS011;9453;50.294;18.644;2023-04-25T05:34:52;6.27;;;3.60;;
18647;SDS011;9453;50.294;18.644;2023-04-25T05:37:24;8.50;;;3.23;;
18647;SDS011;9453;50.294;18.644;2023-04-25T05:39:51;7.20;;;3.30;;
18647;SDS011;9453;50.294;18.644;2023-04-25T05:42:18;6.60;;;3.13;;
18647;SDS011;9453;50.294;18.644;2023-04-25T05:44:47;7.40;;;3.60;;
18647;SDS011;9453;50.294;18.644;2023-04-25T05:47:14;8.50;;;3.90;;
18647;SDS011;9453;50.294;18.644;2023-04-25T05:49:41;5.53;;;3.70;;
18647;SDS011;9453;50.294;18.644;2023-04-25T05:52:08;7.63;;;3.50;;
18647;SDS011;9453;50.294;18.644;2023-04-25T05:54:35;10.50;;;3.70;;
18647;SDS011;9453;50.294;18.644;2023-04-25T05:57:02;8.83;;;3.87;;
18647;SDS011;9453;50.294;18.644;2023-04-25T05:59:29;6.27;;;4.20;;
18647;SDS011;9453;50.294;18.644;2023-04-25T06:01:57;6.17;;;3.87;;
18647;SDS011;9453;50.294;18.644;2023-04-25T06:04:25;7.47;;;3.97;;
18647;SDS011;9453;50.294;18.644;2023-04-25T06:06:52;7.17;;;4.00;;
18647;SDS011;9453;50.294;18.644;2023-04-25T06:09:19;6.43;;;4.30;;
18647;SDS011;9453;50.294;18.644;2023-04-25T06:11:46;10.70;;;3.83;;
18647;SDS011;9453;50.294;18.644;2023-04-25T06:14:13;8.03;;;3.60;;
18647;SDS011;9453;50.294;18.644;2023-04-25T06:16:40;6.50;;;3.80;;
18647;SDS011;9453;50.294;18.644;2023-04-25T06:19:08;5.50;;;3.60;;
18647;SDS011;9453;50.294;18.644;2023-04-25T06:21:35;9.30;;;3.40;;
18647;SDS011;9453;50.294;18.644;2023-04-25T06:24:02;8.37;;;3.43;;
18647;SDS011;9453;50.294;18.644;2023-04-25T06:26:30;11.10;;;4.07;;
18647;SDS011;9453;50.294;18.644;2023-04-25T06:28:57;8.13;;;3.70;;
18647;SDS011;9453;50.294;18.644;2023-04-25T06:31:24;6.87;;;3.20;;
18647;SDS011;9453;50.294;18.644;2023-04-25T06:33:51;8.30;;;4.03;;
18647;SDS011;9453;50.294;18.644;2023-04-25T06:36:21;10.77;;;3.90;;
18647;SDS011;9453;50.294;18.644;2023-04-25T06:38:50;10.83;;;3.53;;
18647;SDS011;9453;50.294;18.644;2023-04-25T06:41:16;6.90;;;3.60;;
18647;SDS011;9453;50.294;18.644;2023-04-25T06:43:44;7.67;;;4.20;;
18647;SDS011;9453;50.294;18.644;2023-04-25T06:46:11;10.10;;;4.67;;
18647;SDS011;9453;50.294;18.644;2023-04-25T06:48:38;7.40;;;4.33;;
18647;SDS011;9453;50.294;18.644;2023-04-25T06:51:05;7.50;;;4.47;;
18647;SDS011;9453;50.294;18.644;2023-04-25T06:53:33;8.60;;;4.30;;
18647;SDS011;9453;50.294;18.644;2023-04-25T06:56:00;11.10;;;4.23;;
18647;SDS011;9453;50.294;18.644;2023-04-25T06:58:27;10.80;;;4.40;;
18647;SDS011;9453;50.294;18.644;2023-04-25T07:00:54;8.77;;;4.10;;
18647;SDS011;9453;50.294;18.644;2023-04-25T07:03:20;5.37;;;3.80;;
18647;SDS011;9453;50.294;18.644;2023-04-25T07:05:47;8.87;;;4.23;;
18647;SDS011;9453;50.294;18.644;2023-04-25T07:08:15;7.53;;;4.27;;
18647;SDS011;9453;50.294;18.644;2023-04-25T07:10:43;7.47;;;4.03;;
18647;SDS011;9453;50.294;18.644;2023-04-25T07:13:11;7.60;;;4.07;;
18647;SDS011;9453;50.294;18.644;2023-04-25T07:15:38;8.20;;;4.07;;
18647;SDS011;9453;50.294;18.644;2023-04-25T07:18:05;10.43;;;4.07;;
18647;SDS011;9453;50.294;18.644;2023-04-25T07:20:32;8.27;;;4.30;;
18647;SDS011;9453;50.294;18.644;2023-04-25T07:22:59;7.30;;;3.73;;
18647;SDS011;9453;50.294;18.644;2023-04-25T07:25:26;8.70;;;4.70;;
18647;SDS011;9453;50.294;18.644;2023-04-25T07:27:54;7.70;;;4.10;;
18647;SDS011;9453;50.294;18.644;2023-04-25T07:30:21;7.07;;;3.90;;
18647;SDS011;9453;50.294;18.644;2023-04-25T07:32:48;6.53;;;3.80;;
18647;SDS011;9453;50.294;18.644;2023-04-25T07:35:16;6.97;;;4.00;;
18647;SDS011;9453;50.294;18.644;2023-04-25T07:37:43;6.80;;;3.87;;
18647;SDS011;9453;50.294;18.644;2023-04-25T07:40:10;6.83;;;4.23;;
18647;SDS011;9453;50.294;18.644;2023-04-25T07:42:38;10.93;;;4.00;;
18647;SDS011;9453;50.294;18.644;2023-04-25T07:45:07;7.53;;;3.77;;
18647;SDS011;9453;50.294;18.644;2023-04-25T07:47:35;9.57;;;4.07;;
18647;SDS011;9453;50.294;18.644;2023-04-25T07:50:03;7.13;;;4.00;;
18647;SDS011;9453;50.294;18.644;2023-04-25T07:52:31;6.47;;;3.80;;
18647;SDS011;9453;50.294;18.644;2023-04-25T07:54:58;6.93;;;3.83;;
18647;SDS011;9453;50.294;18.644;2023-04-25T07:57:25;9.17;;;3.87;;
18647;SDS011;9453;50.294;18.644;2023-04-25T07:59:52;8.10;;;3.77;;
18647;SDS011;9453;50.294;18.644;2023-04-25T08:02:20;6.67;;;3.70;;
18647;SDS011;9453;50.294;18.644;2023-04-25T08:04:47;6.57;;;3.60;;
18647;SDS011;9453;50.294;18.644;2023-04-25T08:07:14;7.87;;;4.27;;
18647;SDS011;9453;50.294;18.644;2023-04-25T08:09:41;6.97;;;3.70;;
18647;SDS011;9453;50.294;18.644;2023-04-25T08:12:08;6.70;;;3.77;;
18647;SDS011;9453;50.294;18.644;2023-04-25T08:14:35;11.57;;;4.47;;
18647;SDS011;9453;50.294;18.644;2023-04-25T08:17:04;6.77;;;3.73;;
18647;SDS011;9453;50.294;18.644;2023-04-25T08:19:33;8.90;;;4.17;;
18647;SDS011;9453;50.294;18.644;2023-04-25T08:21:59;7.27;;;4.03;;
18647;SDS011;9453;50.294;18.644;2023-04-25T08:24:26;8.17;;;3.87;;
18647;SDS011;9453;50.294;18.644;2023-04-25T08:26:53;8.97;;;3.77;;
18647;SDS011;9453;50.294;18.644;2023-04-25T08:29:20;10.70;;;3.70;;
18647;SDS011;9453;50.294;18.644;2023-04-25T08:31:49;7.77;;;3.57;;
18647;SDS011;9453;50.294;18.644;2023-04-25T08:34:17;7.67;;;3.47;;
18647;SDS011;9453;50.294;18.644;2023-04-25T08:36:46;5.77;;;3.80;;
18647;SDS011;9453;50.294;18.644;2023-04-25T08:39:13;6.17;;;3.30;;
18647;SDS011;9453;50.294;18.644;2023-04-25T08:41:40;5.60;;;2.80;;
18647;SDS011;9453;50.294;18.644;2023-04-25T08:44:08;8.40;;;3.00;;
18647;SDS011;9453;50.294;18.644;2023-04-25T08:46:37;10.23;;;4.22;;
18647;SDS011;9453;50.294;18.644;2023-04-25T08:49:04;5.40;;;3.00;;
18647;SDS011;9453;50.294;18.644;2023-04-25T08:51:31;4.05;;;2.85;;
18647;SDS011;9453;50.294;18.644;2023-04-25T08:54:02;4.27;;;2.77;;
18647;SDS011;9453;50.294;18.644;2023-04-25T08:56:35;7.10;;;3.07;;
18647;SDS011;9453;50.294;18.644;2023-04-25T08:59:02;4.63;;;2.75;;
18647;SDS011;9453;50.294;18.644;2023-04-25T09:01:32;4.27;;;2.77;;
18647;SDS011;9453;50.294;18.644;2023-04-25T09:04:00;5.20;;;2.73;;
18647;SDS011;9453;50.294;18.644;2023-04-25T09:08:58;5.70;;;2.53;;
18647;SDS011;9453;50.294;18.644;2023-04-25T09:11:31;7.03;;;2.57;;
18647;SDS011;9453;50.294;18.644;2023-04-25T09:14:10;4.37;;;2.80;;
18647;SDS011;9453;50.294;18.644;2023-04-25T09:16:57;5.07;;;2.30;;
18647;SDS011;9453;50.294;18.644;2023-04-25T09:19:28;4.30;;;2.40;;
18647;SDS011;9453;50.294;18.644;2023-04-25T09:21:56;6.60;;;2.60;;
18647;SDS011;9453;50.294;18.644;2023-04-25T09:24:33;3.63;;;2.30;;
18647;SDS011;9453;50.294;18.644;2023-04-25T09:27:04;8.10;;;2.33;;
18647;SDS011;9453;50.294;18.644;2023-04-25T09:29:32;4.83;;;2.43;;
18647;SDS011;9453;50.294;18.644;2023-04-25T09:32:14;3.70;;;2.30;;
18647;SDS011;9453;50.294;18.644;2023-04-25T09:34:43;6.53;;;2.43;;
18647;SDS011;9453;50.294;18.644;2023-04-25T09:37:16;4.77;;;2.43;;
18647;SDS011;9453;50.294;18.644;2023-04-25T09:39:47;6.70;;;2.50;;
18647;SDS011;9453;50.294;18.644;2023-04-25T09:42:15;5.57;;;2.40;;
18647;SDS011;9453;50.294;18.644;2023-04-25T09:44:43;4.47;;;2.30;;
18647;SDS011;9453;50.294;18.644;2023-04-25T09:47:10;4.13;;;2.37;;
18647;SDS011;9453;50.294;18.644;2023-04-25T09:49:39;5.90;;;2.10;;
18647;SDS011;9453;50.294;18.644;2023-04-25T09:52:07;7.73;;;2.53;;
18647;SDS011;9453;50.294;18.644;2023-04-25T09:54:35;3.70;;;2.57;;
18647;SDS011;9453;50.294;18.644;2023-04-25T09:57:06;3.67;;;2.53;;
18647;SDS011;9453;50.294;18.644;2023-04-25T09:59:38;5.47;;;2.47;;
18647;SDS011;9453;50.294;18.644;2023-04-25T10:02:08;6.83;;;2.40;;
18647;SDS011;9453;50.294;18.644;2023-04-25T10:04:36;7.27;;;3.10;;
18647;SDS011;9453;50.294;18.644;2023-04-25T10:07:05;5.10;;;3.00;;
18647;SDS011;9453;50.294;18.644;2023-04-25T10:09:33;6.37;;;2.70;;
18647;SDS011;9453;50.294;18.644;2023-04-25T10:12:04;5.00;;;2.30;;
18647;SDS011;9453;50.294;18.644;2023-04-25T10:14:31;7.40;;;2.77;;
18647;SDS011;9453;50.294;18.644;2023-04-25T10:16:58;4.53;;;2.73;;
18647;SDS011;9453;50.294;18.644;2023-04-25T10:19:26;7.67;;;2.67;;
18647;SDS011;9453;50.294;18.644;2023-04-25T10:21:55;5.57;;;2.53;;
18647;SDS011;9453;50.294;18.644;2023-04-25T10:24:28;4.93;;;2.63;;
18647;SDS011;9453;50.294;18.644;2023-04-25T10:26:55;8.27;;;2.33;;
18647;SDS011;9453;50.294;18.644;2023-04-25T10:29:25;4.77;;;2.20;;
18647;SDS011;9453;50.294;18.644;2023-04-25T10:31:52;3.47;;;2.45;;
18647;SDS011;9453;50.294;18.644;2023-04-25T10:34:19;5.20;;;2.63;;
18647;SDS011;9453;50.294;18.644;2023-04-25T10:36:51;5.17;;;2.60;;
18647;SDS011;9453;50.294;18.644;2023-04-25T10:39:22;7.00;;;2.30;;
18647;SDS011;9453;50.294;18.644;2023-04-25T10:41:53;5.97;;;2.63;;
18647;SDS011;9453;50.294;18.644;2023-04-25T10:44:23;4.13;;;2.30;;
18647;SDS011;9453;50.294;18.644;2023-04-25T10:46:55;4.93;;;2.53;;
18647;SDS011;9453;50.294;18.644;2023-04-25T10:49:29;3.87;;;2.27;;
18647;SDS011;9453;50.294;18.644;2023-04-25T10:52:16;5.77;;;2.40;;
18647;SDS011;9453;50.294;18.644;2023-04-25T10:54:48;6.67;;;2.60;;
18647;SDS011;9453;50.294;18.644;2023-04-25T10:57:27;3.63;;;2.27;;
18647;SDS011;9453;50.294;18.644;2023-04-25T10:59:59;3.50;;;2.03;;
18647;SDS011;9453;50.294;18.644;2023-04-25T11:02:30;3.93;;;2.50;;
18647;SDS011;9453;50.294;18.644;2023-04-25T11:04:57;6.37;;;2.10;;
18647;SDS011;9453;50.294;18.644;2023-04-25T11:07:28;6.70;;;2.47;;
18647;SDS011;9453;50.294;18.644;2023-04-25T11:10:02;5.10;;;2.20;;
18647;SDS011;9453;50.294;18.644;2023-04-25T11:12:30;5.33;;;2.50;;
18647;SDS011;9453;50.294;18.644;2023-04-25T11:14:59;6.70;;;2.40;;
18647;SDS011;9453;50.294;18.644;2023-04-25T11:17:27;4.97;;;2.40;;
18647;SDS011;9453;50.294;18.644;2023-04-25T11:19:54;5.27;;;2.00;;
18647;SDS011;9453;50.294;18.644;2023-04-25T11:22:22;4.60;;;2.28;;
18647;SDS011;9453;50.294;18.644;2023-04-25T11:24:49;8.43;;;2.67;;
18647;SDS011;9453;50.294;18.644;2023-04-25T11:27:17;4.17;;;2.40;;
18647;SDS011;9453;50.294;18.644;2023-04-25T11:43:31;7.03;;;3.23;;
18647;SDS011;9453;50.294;18.644;2023-04-25T11:46:37;5.93;;;2.73;;
18647;SDS011;9453;50.294;18.644;2023-04-25T12:23:05;3.70;;;2.40;;
18647;SDS011;9453;50.294;18.644;2023-04-25T12:25:34;6.87;;;2.57;;
18647;SDS011;9453;50.294;18.644;2023-04-25T12:28:10;6.57;;;2.23;;
18647;SDS011;9453;50.294;18.644;2023-04-25T12:30:54;9.20;;;2.83;;
18647;SDS011;9453;50.294;18.644;2023-04-25T12:33:22;3.67;;;2.13;;
18647;SDS011;9453;50.294;18.644;2023-04-25T12:35:49;5.23;;;2.43;;
18647;SDS011;9453;50.294;18.644;2023-04-25T12:38:37;6.87;;;3.13;;
18647;SDS011;9453;50.294;18.644;2023-04-25T12:41:05;6.00;;;2.57;;
18647;SDS011;9453;50.294;18.644;2023-04-25T12:43:32;4.73;;;3.00;;
18647;SDS011;9453;50.294;18.644;2023-04-25T12:45:59;4.30;;;2.70;;
18647;SDS011;9453;50.294;18.644;2023-04-25T12:48:29;8.05;;;2.95;;
18647;SDS011;9453;50.294;18.644;2023-04-25T12:50:56;9.75;;;2.70;;
18647;SDS011;9453;50.294;18.644;2023-04-25T12:53:23;5.95;;;2.50;;
18647;SDS011;9453;50.294;18.644;2023-04-25T12:55:51;5.50;;;2.53;;
18647;SDS011;9453;50.294;18.644;2023-04-25T12:58:18;6.20;;;2.70;;
18647;SDS011;9453;50.294;18.644;2023-04-25T13:00:46;5.97;;;2.78;;
18647;SDS011;9453;50.294;18.644;2023-04-25T13:03:13;7.03;;;2.83;;
18647;SDS011;9453;50.294;18.644;2023-04-25T13:05:40;8.38;;;3.05;;
18647;SDS011;9453;50.294;18.644;2023-04-25T13:08:08;6.25;;;2.58;;
18647;SDS011;9453;50.294;18.644;2023-04-25T13:10:35;6.05;;;2.83;;
18647;SDS011;9453;50.294;18.644;2023-04-25T13:13:05;5.85;;;3.10;;
18647;SDS011;9453;50.294;18.644;2023-04-25T13:15:32;11.68;;;3.05;;
18647;SDS011;9453;50.294;18.644;2023-04-25T13:17:59;5.20;;;2.80;;
18647;SDS011;9453;50.294;18.644;2023-04-25T13:20:26;4.82;;;2.78;;
18647;SDS011;9453;50.294;18.644;2023-04-25T13:22:53;7.82;;;3.10;;
18647;SDS011;9453;50.294;18.644;2023-04-25T13:25:20;4.82;;;2.60;;
18647;SDS011;9453;50.294;18.644;2023-04-25T13:27:47;6.13;;;3.22;;
18647;SDS011;9453;50.294;18.644;2023-04-25T13:30:16;5.15;;;2.90;;
18647;SDS011;9453;50.294;18.644;2023-04-25T13:32:43;7.90;;;2.72;;
18647;SDS011;9453;50.294;18.644;2023-04-25T13:35:11;3.90;;;2.60;;
18647;SDS011;9453;50.294;18.644;2023-04-25T13:37:39;6.72;;;2.92;;
18647;SDS011;9453;50.294;18.644;2023-04-25T13:40:07;4.35;;;2.70;;
18647;SDS011;9453;50.294;18.644;2023-04-25T13:42:36;5.93;;;2.33;;
18647;SDS011;9453;50.294;18.644;2023-04-25T13:45:04;10.70;;;2.67;;
18647;SDS011;9453;50.294;18.644;2023-04-25T13:47:33;8.55;;;2.67;;
18647;SDS011;9453;50.294;18.644;2023-04-25T13:50:01;4.03;;;2.53;;
18647;SDS011;9453;50.294;18.644;2023-04-25T13:52:28;6.43;;;2.80;;
18647;SDS011;9453;50.294;18.644;2023-04-25T13:54:55;6.75;;;2.97;;
18647;SDS011;9453;50.294;18.644;2023-04-25T13:57:23;6.47;;;2.90;;
18647;SDS011;9453;50.294;18.644;2023-04-25T13:59:50;7.95;;;2.80;;
18647;SDS011;9453;50.294;18.644;2023-04-25T14:02:17;3.83;;;2.38;;
18647;SDS011;9453;50.294;18.644;2023-04-25T14:04:46;4.43;;;2.78;;
18647;SDS011;9453;50.294;18.644;2023-04-25T14:07:14;6.28;;;2.80;;
18647;SDS011;9453;50.294;18.644;2023-04-25T14:09:42;8.23;;;2.97;;
18647;SDS011;9453;50.294;18.644;2023-04-25T14:12:10;12.77;;;3.25;;
18647;SDS011;9453;50.294;18.644;2023-04-25T14:14:37;6.15;;;2.55;;
18647;SDS011;9453;50.294;18.644;2023-04-25T14:17:04;8.32;;;2.42;;
18647;SDS011;9453;50.294;18.644;2023-04-25T14:19:31;7.68;;;2.53;;
18647;SDS011;9453;50.294;18.644;2023-04-25T14:22:00;4.93;;;2.45;;
18647;SDS011;9453;50.294;18.644;2023-04-25T14:24:27;4.85;;;2.60;;
18647;SDS011;9453;50.294;18.644;2023-04-25T14:26:54;6.03;;;2.45;;
18647;SDS011;9453;50.294;18.644;2023-04-25T14:29:21;6.18;;;2.20;;
18647;SDS011;9453;50.294;18.644;2023-04-25T14:31:48;4.90;;;2.10;;
18647;SDS011;9453;50.294;18.644;2023-04-25T14:34:15;5.47;;;2.20;;
18647;SDS011;9453;50.294;18.644;2023-04-25T14:36:42;6.32;;;1.98;;
18647;SDS011;9453;50.294;18.644;2023-04-25T14:39:11;7.30;;;2.50;;
18647;SDS011;9453;50.294;18.644;2023-04-25T14:41:39;3.53;;;1.98;;
18647;SDS011;9453;50.294;18.644;2023-04-25T14:44:06;3.78;;;2.05;;
18647;SDS011;9453;50.294;18.644;2023-04-25T14:46:33;7.45;;;2.60;;
18647;SDS011;9453;50.294;18.644;2023-04-25T14:49:00;4.60;;;2.17;;
18647;SDS011;9453;50.294;18.644;2023-04-25T14:51:28;3.60;;;2.27;;
18647;SDS011;9453;50.294;18.644;2023-04-25T14:53:56;4.80;;;2.33;;
18647;SDS011;9453;50.294;18.644;2023-04-25T14:56:24;3.27;;;2.23;;
18647;SDS011;9453;50.294;18.644;2023-04-25T14:58:51;6.35;;;2.65;;
18647;SDS011;9453;50.294;18.644;2023-04-25T15:01:18;10.60;;;3.00;;
18647;SDS011;9453;50.294;18.644;2023-04-25T15:03:48;5.75;;;2.65;;
18647;SDS011;9453;50.294;18.644;2023-04-25T15:06:16;5.53;;;2.92;;
18647;SDS011;9453;50.294;18.644;2023-04-25T15:08:42;7.57;;;2.75;;
18647;SDS011;9453;50.294;18.644;2023-04-25T15:11:10;5.38;;;2.47;;
18647;SDS011;9453;50.294;18.644;2023-04-25T15:13:38;4.18;;;2.28;;
18647;SDS011;9453;50.294;18.644;2023-04-25T15:16:05;4.70;;;2.30;;
18647;SDS011;9453;50.294;18.644;2023-04-25T15:18:32;7.00;;;2.50;;
18647;SDS011;9453;50.294;18.644;2023-04-25T15:20:59;4.60;;;3.00;;
18647;SDS011;9453;50.294;18.644;2023-04-25T15:23:26;5.32;;;2.38;;
18647;SDS011;9453;50.294;18.644;2023-04-25T15:25:53;5.72;;;2.67;;
18647;SDS011;9453;50.294;18.644;2023-04-25T15:28:20;5.72;;;2.63;;
18647;SDS011;9453;50.294;18.644;2023-04-25T15:30:48;5.28;;;2.67;;
18647;SDS011;9453;50.294;18.644;2023-04-25T15:33:15;4.47;;;2.50;;
18647;SDS011;9453;50.294;18.644;2023-04-25T15:35:42;5.60;;;2.47;;
18647;SDS011;9453;50.294;18.644;2023-04-25T15:38:11;6.72;;;2.50;;
18647;SDS011;9453;50.294;18.644;2023-04-25T15:40:37;7.27;;;2.03;;
18647;SDS011;9453;50.294;18.644;2023-04-25T15:43:05;5.33;;;2.00;;
18647;SDS011;9453;50.294;18.644;2023-04-25T15:45:32;5.00;;;1.75;;
18647;SDS011;9453;50.294;18.644;2023-04-25T15:48:03;3.25;;;1.90;;
18647;SDS011;9453;50.294;18.644;2023-04-25T15:50:30;5.45;;;2.60;;
18647;SDS011;9453;50.294;18.644;2023-04-25T15:52:57;4.28;;;1.58;;
18647;SDS011;9453;50.294;18.644;2023-04-25T15:55:24;3.50;;;1.60;;
18647;SDS011;9453;50.294;18.644;2023-04-25T15:57:51;5.40;;;1.77;;
18647;SDS011;9453;50.294;18.644;2023-04-25T16:00:18;3.88;;;2.15;;
18647;SDS011;9453;50.294;18.644;2023-04-25T16:02:46;5.43;;;1.90;;
18647;SDS011;9453;50.294;18.644;2023-04-25T16:05:15;3.63;;;1.67;;
18647;SDS011;9453;50.294;18.644;2023-04-25T16:07:42;5.75;;;1.88;;
18647;SDS011;9453;50.294;18.644;2023-04-25T16:10:11;3.13;;;1.40;;
18647;SDS011;9453;50.294;18.644;2023-04-25T16:12:38;2.83;;;1.60;;
18647;SDS011;9453;50.294;18.644;2023-04-25T16:15:06;9.13;;;1.60;;
18647;SDS011;9453;50.294;18.644;2023-04-25T16:17:34;2.40;;;1.47;;
18647;SDS011;9453;50.294;18.644;2023-04-25T16:20:01;9.77;;;1.50;;
18647;SDS011;9453;50.294;18.644;2023-04-25T16:22:35;3.47;;;1.50;;
18647;SDS011;9453;50.294;18.644;2023-04-25T16:25:02;3.33;;;1.63;;
18647;SDS011;9453;50.294;18.644;2023-04-25T16:27:29;6.30;;;1.40;;
18647;SDS011;9453;50.294;18.644;2023-04-25T16:29:58;4.63;;;1.40;;
18647;SDS011;9453;50.294;18.644;2023-04-25T16:32:25;3.50;;;1.53;;
18647;SDS011;9453;50.294;18.644;2023-04-25T16:34:52;3.63;;;1.57;;
18647;SDS011;9453;50.294;18.644;2023-04-25T16:37:19;2.00;;;1.53;;
18647;SDS011;9453;50.294;18.644;2023-04-25T16:39:48;2.93;;;1.37;;
18647;SDS011;9453;50.294;18.644;2023-04-25T16:42:15;6.27;;;1.40;;
18647;SDS011;9453;50.294;18.644;2023-04-25T16:44:42;5.03;;;1.57;;
18647;SDS011;9453;50.294;18.644;2023-04-25T16:47:09;4.13;;;1.53;;
18647;SDS011;9453;50.294;18.644;2023-04-25T16:49:36;4.40;;;1.30;;
18647;SDS011;9453;50.294;18.644;2023-04-25T16:52:05;5.80;;;1.27;;
18647;SDS011;9453;50.294;18.644;2023-04-25T16:54:32;2.73;;;1.30;;
18647;SDS011;9453;50.294;18.644;2023-04-25T16:57:00;2.13;;;1.50;;
18647;SDS011;9453;50.294;18.644;2023-04-25T16:59:28;5.47;;;1.60;;
18647;SDS011;9453;50.294;18.644;2023-04-25T17:01:55;2.60;;;1.40;;
18647;SDS011;9453;50.294;18.644;2023-04-25T17:04:22;3.00;;;1.30;;
18647;SDS011;9453;50.294;18.644;2023-04-25T17:06:49;4.13;;;1.80;;
18647;SDS011;9453;50.294;18.644;2023-04-25T17:09:16;4.03;;;1.40;;
18647;SDS011;9453;50.294;18.644;2023-04-25T17:11:43;4.57;;;1.40;;
18647;SDS011;9453;50.294;18.644;2023-04-25T17:14:11;4.23;;;1.40;;
18647;SDS011;9453;50.294;18.644;2023-04-25T17:16:38;3.80;;;1.50;;
18647;SDS011;9453;50.294;18.644;2023-04-25T17:19:05;3.13;;;1.23;;
18647;SDS011;9453;50.294;18.644;2023-04-25T17:21:33;5.03;;;1.70;;
18647;SDS011;9453;50.294;18.644;2023-04-25T17:24:02;3.50;;;1.83;;
18647;SDS011;9453;50.294;18.644;2023-04-25T17:26:33;3.83;;;1.80;;
18647;SDS011;9453;50.294;18.644;2023-04-25T17:29:00;3.53;;;1.60;;
18647;SDS011;9453;50.294;18.644;2023-04-25T17:31:29;4.67;;;1.80;;
18647;SDS011;9453;50.294;18.644;2023-04-25T17:33:56;3.23;;;1.60;;
18647;SDS011;9453;50.294;18.644;2023-04-25T17:36:23;3.67;;;1.73;;
18647;SDS011;9453;50.294;18.644;2023-04-25T17:38:49;5.40;;;1.80;;
18647;SDS011;9453;50.294;18.644;2023-04-25T17:41:16;5.87;;;2.00;;
18647;SDS011;9453;50.294;18.644;2023-04-25T17:43:44;4.57;;;1.83;;
18647;SDS011;9453;50.294;18.644;2023-04-25T17:46:11;4.03;;;1.80;;
18647;SDS011;9453;50.294;18.644;2023-04-25T17:48:40;5.33;;;1.73;;
18647;SDS011;9453;50.294;18.644;2023-04-25T17:51:07;2.97;;;1.60;;
18647;SDS011;9453;50.294;18.644;2023-04-25T17:53:34;8.30;;;2.10;;
18647;SDS011;9453;50.294;18.644;2023-04-25T17:56:01;2.40;;;1.37;;
18647;SDS011;9453;50.294;18.644;2023-04-25T17:58:28;3.23;;;1.50;;
18647;SDS011;9453;50.294;18.644;2023-04-25T18:00:55;4.23;;;1.83;;
18647;SDS011;9453;50.294;18.644;2023-04-25T18:03:22;5.13;;;1.70;;
18647;SDS011;9453;50.294;18.644;2023-04-25T18:05:51;4.70;;;1.97;;
18647;SDS011;9453;50.294;18.644;2023-04-25T18:08:18;5.87;;;1.90;;
18647;SDS011;9453;50.294;18.644;2023-04-25T18:10:46;5.27;;;1.90;;
18647;SDS011;9453;50.294;18.644;2023-04-25T18:13:13;6.80;;;2.10;;
18647;SDS011;9453;50.294;18.644;2023-04-25T18:15:41;3.47;;;2.10;;
18647;SDS011;9453;50.294;18.644;2023-04-25T18:18:08;4.53;;;2.17;;
18647;SDS011;9453;50.294;18.644;2023-04-25T18:20:43;9.50;;;2.13;;
18647;SDS011;9453;50.294;18.644;2023-04-25T18:23:12;5.80;;;2.27;;
18647;SDS011;9453;50.294;18.644;2023-04-25T18:25:40;7.30;;;2.63;;
18647;SDS011;9453;50.294;18.644;2023-04-25T18:28:07;5.83;;;2.57;;
18647;SDS011;9453;50.294;18.644;2023-04-25T18:30:34;5.57;;;2.50;;
18647;SDS011;9453;50.294;18.644;2023-04-25T18:33:02;6.83;;;3.40;;
18647;SDS011;9453;50.294;18.644;2023-04-25T18:35:29;8.20;;;2.67;;
18647;SDS011;9453;50.294;18.644;2023-04-25T18:37:56;6.27;;;2.77;;
18647;SDS011;9453;50.294;18.644;2023-04-25T18:40:24;8.10;;;2.50;;
18647;SDS011;9453;50.294;18.644;2023-04-25T18:42:51;5.30;;;2.73;;
18647;SDS011;9453;50.294;18.644;2023-04-25T18:45:18;8.53;;;2.70;;
18647;SDS011;9453;50.294;18.644;2023-04-25T18:47:45;5.80;;;2.70;;
18647;SDS011;9453;50.294;18.644;2023-04-25T18:50:12;6.40;;;2.67;;
18647;SDS011;9453;50.294;18.644;2023-04-25T18:52:39;5.63;;;2.50;;
18647;SDS011;9453;50.294;18.644;2023-04-25T18:55:07;5.23;;;2.20;;
18647;SDS011;9453;50.294;18.644;2023-04-25T18:57:36;10.03;;;2.80;;
18647;SDS011;9453;50.294;18.644;2023-04-25T19:00:04;8.27;;;3.00;;
18647;SDS011;9453;50.294;18.644;2023-04-25T19:02:33;7.60;;;2.73;;
18647;SDS011;9453;50.294;18.644;2023-04-25T19:05:00;5.73;;;2.70;;
18647;SDS011;9453;50.294;18.644;2023-04-25T19:07:27;7.17;;;2.80;;
18647;SDS011;9453;50.294;18.644;2023-04-25T19:09:56;6.60;;;2.90;;
18647;SDS011;9453;50.294;18.644;2023-04-25T19:12:23;8.43;;;3.70;;
18647;SDS011;9453;50.294;18.644;2023-04-25T19:14:51;11.97;;;5.43;;
18647;SDS011;9453;50.294;18.644;2023-04-25T19:17:19;15.57;;;5.57;;
18647;SDS011;9453;50.294;18.644;2023-04-25T19:19:46;12.50;;;4.90;;
18647;SDS011;9453;50.294;18.644;2023-04-25T19:22:13;14.20;;;4.83;;
18647;SDS011;9453;50.294;18.644;2023-04-25T19:24:40;13.73;;;5.27;;
18647;SDS011;9453;50.294;18.644;2023-04-25T19:27:07;12.57;;;5.90;;
18647;SDS011;9453;50.294;18.644;2023-04-25T19:29:34;14.47;;;6.10;;
18647;SDS011;9453;50.294;18.644;2023-04-25T19:32:04;17.73;;;5.87;;
18647;SDS011;9453;50.294;18.644;2023-04-25T19:34:31;15.00;;;5.63;;
18647;SDS011;9453;50.294;18.644;2023-04-25T19:37:01;18.23;;;5.00;;
18647;SDS011;9453;50.294;18.644;2023-04-25T19:39:28;13.50;;;5.47;;
18647;SDS011;9453;50.294;18.644;2023-04-25T19:41:55;13.53;;;4.20;;